createdAt,value
2023-02-02T00:01:33.003Z,3.59
2023-02-02T00:04:01.225Z,3.57
2023-02-02T00:06:31.300Z,3.54
2023-02-02T00:09:01.307Z,3.51
2023-02-02T00:11:29.563Z,3.53
2023-02-02T00:13:57.520Z,3.53
2023-02-02T00:16:28.712Z,3.54
2023-02-02T00:18:59.361Z,3.53
2023-02-02T00:21:28.233Z,3.54
2023-02-02T00:23:56.195Z,3.52
2023-02-02T00:26:24.728Z,3.50
2023-02-02T00:28:53.086Z,3.49
2023-02-02T00:31:21.140Z,3.48
2023-02-02T00:33:50.200Z,3.51
2023-02-02T00:36:19.479Z,3.53
2023-02-02T00:38:48.934Z,3.55
2023-02-02T00:41:17.299Z,3.56
2023-02-02T00:43:46.945Z,3.57
2023-02-02T00:46:19.365Z,3.56
2023-02-02T00:48:47.441Z,3.56
2023-02-02T00:51:15.409Z,3.56
2023-02-02T00:53:43.282Z,3.55
2023-02-02T00:56:11.383Z,3.55
2023-02-02T00:58:39.370Z,3.56
2023-02-02T01:01:18.464Z,3.56
2023-02-02T01:03:46.910Z,3.57
2023-02-02T01:06:16.091Z,3.57
2023-02-02T01:08:44.350Z,3.56
2023-02-02T01:11:12.368Z,3.55
2023-02-02T01:13:40.425Z,3.54
2023-02-02T01:16:08.554Z,3.51
2023-02-02T01:18:37.001Z,3.51
2023-02-02T01:21:08.204Z,3.52
2023-02-02T01:23:37.296Z,3.55
2023-02-02T01:26:08.661Z,3.57
2023-02-02T01:28:37.380Z,3.58
2023-02-02T01:31:08.221Z,3.59
2023-02-02T01:33:36.313Z,3.59
2023-02-02T01:36:06.816Z,3.59
2023-02-02T01:38:35.313Z,3.56
2023-02-02T01:41:07.322Z,3.56
2023-02-02T01:43:41.729Z,3.56
2023-02-02T01:46:21.022Z,3.58
2023-02-02T01:49:03.179Z,3.60
2023-02-02T01:51:52.116Z,3.62
2023-02-02T01:54:39.233Z,3.64
2023-02-02T01:57:12.788Z,3.64
2023-02-02T01:59:42.034Z,3.63
2023-02-02T02:02:13.063Z,3.64
2023-02-02T02:04:42.649Z,3.63
2023-02-02T02:07:11.299Z,3.64
2023-02-02T02:09:39.299Z,3.62
2023-02-02T02:12:15.725Z,3.63
2023-02-02T02:15:06.958Z,3.66
2023-02-02T02:17:53.921Z,3.70
2023-02-02T02:21:05.130Z,3.71
2023-02-02T02:24:17.702Z,3.73
2023-02-02T02:26:56.704Z,3.74
2023-02-02T02:29:51.032Z,3.72
2023-02-02T02:32:37.734Z,3.70
2023-02-02T02:35:13.115Z,3.68
2023-02-02T02:37:51.327Z,3.66
2023-02-02T02:40:25.544Z,3.66
2023-02-02T02:42:59.926Z,3.69
2023-02-02T02:45:28.344Z,3.72
2023-02-02T02:47:56.644Z,3.74
2023-02-02T02:50:24.599Z,3.75
2023-02-02T02:53:04.435Z,3.76
2023-02-02T02:55:47.746Z,3.75
2023-02-02T02:58:21.158Z,3.74
2023-02-02T03:01:08.176Z,3.73
2023-02-02T03:03:51.540Z,3.71
2023-02-02T03:06:46.220Z,3.68
2023-02-02T03:09:20.110Z,3.68
2023-02-02T03:11:48.339Z,3.71
2023-02-02T03:14:16.739Z,3.73
2023-02-02T03:16:44.750Z,3.74
2023-02-02T03:19:13.092Z,3.75
2023-02-02T03:21:41.140Z,3.75
2023-02-02T03:24:09.350Z,3.75
2023-02-02T03:26:37.878Z,3.74
2023-02-02T03:29:06.308Z,3.72
2023-02-02T03:31:37.307Z,3.71
2023-02-02T03:34:05.856Z,3.69
2023-02-02T03:36:34.121Z,3.66
2023-02-02T03:39:02.798Z,3.67
2023-02-02T03:41:30.684Z,3.69
2023-02-02T03:43:58.723Z,3.72
2023-02-02T03:46:27.166Z,3.75
2023-02-02T03:48:56.031Z,3.75
2023-02-02T03:51:24.258Z,3.77
2023-02-02T03:53:52.453Z,3.76
2023-02-02T03:56:20.729Z,3.76
2023-02-02T03:58:48.690Z,3.76
2023-02-02T04:01:16.794Z,3.74
2023-02-02T04:03:46.409Z,3.73
2023-02-02T04:06:14.491Z,3.71
2023-02-02T04:08:45.864Z,3.70
2023-02-02T04:11:14.117Z,3.71
2023-02-02T04:13:45.670Z,3.74
2023-02-02T04:16:15.196Z,3.77
2023-02-02T04:18:43.205Z,3.81
2023-02-02T04:21:11.421Z,3.83
2023-02-02T04:23:39.497Z,3.84
2023-02-02T04:26:07.500Z,3.85
2023-02-02T04:28:35.926Z,3.85
2023-02-02T04:31:03.956Z,3.84
2023-02-02T04:33:32.075Z,3.83
2023-02-02T04:36:00.319Z,3.82
2023-02-02T04:38:28.552Z,3.82
2023-02-02T04:40:56.793Z,3.81
2023-02-02T04:43:24.718Z,3.80
2023-02-02T04:45:57.378Z,3.81
2023-02-02T04:48:25.717Z,3.84
2023-02-02T04:51:01.188Z,3.87
2023-02-02T04:53:29.857Z,3.91
2023-02-02T04:55:58.563Z,3.93
2023-02-02T04:58:27.359Z,3.93
2023-02-02T05:00:55.302Z,3.93
2023-02-02T05:03:23.831Z,3.92
2023-02-02T05:05:51.950Z,3.92
2023-02-02T05:08:21.371Z,3.91
2023-02-02T05:10:50.488Z,3.90
2023-02-02T05:13:18.777Z,3.90
2023-02-02T05:15:47.012Z,3.89
2023-02-02T05:18:15.185Z,3.90
2023-02-02T05:20:43.389Z,3.93
2023-02-02T05:23:11.515Z,3.97
2023-02-02T05:25:39.811Z,4.01
2023-02-02T05:28:07.800Z,4.04
2023-02-02T05:30:36.025Z,4.06
2023-02-02T05:33:04.367Z,4.06
2023-02-02T05:35:32.535Z,4.06
2023-02-02T05:38:00.394Z,4.06
2023-02-02T05:40:28.760Z,4.06
2023-02-02T05:42:56.995Z,4.05
2023-02-02T05:45:25.263Z,4.02
2023-02-02T05:47:55.161Z,4.01
2023-02-02T05:50:23.261Z,4.01
2023-02-02T05:52:51.507Z,4.01
2023-02-02T05:55:20.177Z,4.04
2023-02-02T05:57:48.316Z,4.08
2023-02-02T06:00:19.867Z,4.11
2023-02-02T06:02:48.325Z,4.13
2023-02-02T06:05:16.702Z,4.15
2023-02-02T06:07:44.741Z,4.15
2023-02-02T06:10:12.760Z,4.15
2023-02-02T06:12:40.590Z,4.13
2023-02-02T06:15:08.995Z,4.13
2023-02-02T06:17:37.190Z,4.12
2023-02-02T06:20:05.819Z,4.10
2023-02-02T06:22:33.937Z,4.08
2023-02-02T06:25:04.375Z,4.08
2023-02-02T06:27:32.753Z,4.09
2023-02-02T06:30:00.583Z,4.10
2023-02-02T06:32:31.440Z,4.11
2023-02-02T06:34:59.348Z,4.11
2023-02-02T06:37:29.639Z,4.10
2023-02-02T06:39:58.854Z,4.08
2023-02-02T06:42:26.791Z,4.04
2023-02-02T06:44:54.757Z,4.01
2023-02-02T06:47:22.744Z,3.99
2023-02-02T06:49:51.230Z,3.97
2023-02-02T06:52:19.078Z,3.97
2023-02-02T06:54:47.168Z,3.98
2023-02-02T06:57:15.187Z,4.00
2023-02-02T06:59:43.186Z,4.00
2023-02-02T07:02:13.358Z,3.99
2023-02-02T07:04:41.218Z,3.98
2023-02-02T07:07:09.205Z,3.97
2023-02-02T07:09:37.270Z,3.96
2023-02-02T07:12:05.497Z,3.94
2023-02-02T07:14:33.530Z,3.94
2023-02-02T07:17:01.718Z,3.95
2023-02-02T07:19:29.777Z,3.97
2023-02-02T07:21:57.905Z,4.00
2023-02-02T07:24:27.617Z,4.02
2023-02-02T07:26:55.898Z,4.03
2023-02-02T07:29:24.051Z,4.04
2023-02-02T07:31:52.262Z,4.04
2023-02-02T07:34:20.364Z,4.04
2023-02-02T07:36:48.350Z,4.03
2023-02-02T07:39:16.454Z,4.02
2023-02-02T07:41:44.313Z,4.02
2023-02-02T07:44:15.947Z,4.04
2023-02-02T07:46:45.129Z,4.06
2023-02-02T07:49:15.304Z,4.08
2023-02-02T07:51:47.548Z,4.10
2023-02-02T07:54:16.743Z,4.10
2023-02-02T07:56:44.878Z,4.11
2023-02-02T07:59:12.806Z,4.11
2023-02-02T08:01:40.983Z,4.10
2023-02-02T08:04:08.871Z,4.10
2023-02-02T08:06:38.521Z,4.09
2023-02-02T08:09:08.474Z,4.11
2023-02-02T08:11:38.135Z,4.15
2023-02-02T08:14:06.964Z,4.20
2023-02-02T08:16:35.201Z,4.22
2023-02-02T08:19:03.665Z,4.27
2023-02-02T08:21:35.291Z,4.29
2023-02-02T08:24:04.847Z,4.31
2023-02-02T08:26:33.239Z,4.33
2023-02-02T08:29:07.413Z,4.32
2023-02-02T08:31:38.211Z,4.29
2023-02-02T08:34:06.682Z,4.28
2023-02-02T08:36:37.387Z,4.27
2023-02-02T08:39:07.733Z,4.28
2023-02-02T08:41:37.107Z,4.32
2023-02-02T08:44:11.451Z,4.36
2023-02-02T08:46:40.231Z,4.39
2023-02-02T08:49:12.219Z,4.45
2023-02-02T08:51:40.840Z,4.54
2023-02-02T08:54:09.211Z,4.60
2023-02-02T08:56:37.231Z,4.59
2023-02-02T08:59:06.001Z,4.60
2023-02-02T09:01:35.259Z,4.58
2023-02-02T09:04:07.166Z,4.56
2023-02-02T09:06:40.033Z,4.55
2023-02-02T09:09:10.250Z,4.54
2023-02-02T09:11:38.411Z,4.55
2023-02-02T09:14:06.962Z,4.57
2023-02-02T09:16:35.792Z,4.62
2023-02-02T09:19:04.466Z,4.68
2023-02-02T09:21:37.568Z,4.74
2023-02-02T09:24:13.515Z,4.76
2023-02-02T09:26:43.416Z,4.75
2023-02-02T09:29:13.717Z,4.72
2023-02-02T09:31:43.241Z,4.71
2023-02-02T09:34:13.416Z,4.70
2023-02-02T09:36:42.368Z,4.68
2023-02-02T09:39:15.148Z,4.67
2023-02-02T09:42:21.328Z,4.65
2023-02-02T09:44:56.599Z,4.68
2023-02-02T09:47:43.949Z,4.72
2023-02-02T09:50:23.855Z,4.70
2023-02-02T09:52:55.676Z,4.69
2023-02-02T09:55:44.520Z,4.66
2023-02-02T09:58:23.207Z,4.60
2023-02-02T10:01:15.441Z,4.56
2023-02-02T10:04:05.642Z,4.51
2023-02-02T10:06:42.920Z,4.47
2023-02-02T10:09:18.207Z,4.43
2023-02-02T10:11:56.941Z,4.41
2023-02-02T10:14:30.081Z,4.43
2023-02-02T10:17:01.204Z,4.43
2023-02-02T10:19:30.899Z,4.43
2023-02-02T10:22:11.954Z,4.43
2023-02-02T10:24:40.353Z,4.41
2023-02-02T10:27:24.160Z,4.38
2023-02-02T10:30:02.422Z,4.35
2023-02-02T10:32:49.746Z,4.33
2023-02-02T10:35:27.675Z,4.31
2023-02-02T10:38:20.375Z,4.30
2023-02-02T10:41:10.602Z,4.32
2023-02-02T10:44:04.464Z,4.34
2023-02-02T10:46:42.027Z,4.35
2023-02-02T10:49:13.191Z,4.35
2023-02-02T10:51:41.752Z,4.35
2023-02-02T10:54:26.983Z,4.35
2023-02-02T10:56:58.443Z,4.34
2023-02-02T10:59:32.147Z,4.36
2023-02-02T11:02:11.571Z,4.36
2023-02-02T11:05:02.285Z,4.36
2023-02-02T11:07:30.450Z,4.36
2023-02-02T11:09:58.354Z,4.37
2023-02-02T11:12:33.241Z,4.40
2023-02-02T11:15:25.624Z,4.43
2023-02-02T11:17:53.780Z,4.49
2023-02-02T11:20:38.963Z,4.58
2023-02-02T11:23:09.957Z,4.68
2023-02-02T11:25:38.881Z,4.72
2023-02-02T11:28:19.929Z,4.77
2023-02-02T11:30:52.852Z,4.79
2023-02-02T11:33:35.699Z,4.80
2023-02-02T11:36:21.453Z,4.83
2023-02-02T11:38:49.416Z,4.84
2023-02-02T11:41:22.049Z,4.82
2023-02-02T11:43:52.655Z,4.81
2023-02-02T11:46:28.796Z,4.81
2023-02-02T11:49:03.426Z,4.84
2023-02-02T11:51:32.036Z,4.89
2023-02-02T11:54:16.042Z,4.93
2023-02-02T11:56:50.463Z,4.93
2023-02-02T11:59:40.893Z,4.92
2023-02-02T12:02:25.908Z,4.92
2023-02-02T12:04:56.654Z,4.94
2023-02-02T12:07:28.635Z,4.95
2023-02-02T12:10:04.393Z,4.94
2023-02-02T12:12:37.574Z,4.92
2023-02-02T12:15:28.909Z,4.89
2023-02-02T12:18:07.972Z,4.85
2023-02-02T12:20:38.789Z,4.84
2023-02-02T12:23:37.348Z,4.82
2023-02-02T12:26:27.014Z,4.80
2023-02-02T12:29:07.095Z,4.77
2023-02-02T12:31:46.924Z,4.75
2023-02-02T12:34:30.375Z,4.73
2023-02-02T12:37:04.459Z,4.70
2023-02-02T12:39:55.485Z,4.69
2023-02-02T12:42:26.522Z,4.69
2023-02-02T12:45:16.455Z,4.70
2023-02-02T12:47:48.416Z,4.66
2023-02-02T12:50:35.609Z,4.64
2023-02-02T12:53:18.850Z,4.61
2023-02-02T12:56:16.119Z,4.56
2023-02-02T12:59:02.178Z,4.52
2023-02-02T13:01:38.880Z,4.48
2023-02-02T13:04:09.681Z,4.47
2023-02-02T13:06:56.633Z,4.48
2023-02-02T13:09:38.000Z,4.51
2023-02-02T13:12:11.024Z,4.55
2023-02-02T13:14:46.270Z,4.60
2023-02-02T13:17:21.587Z,4.61
2023-02-02T13:19:53.820Z,4.59
2023-02-02T13:22:26.955Z,4.56
2023-02-02T13:25:00.141Z,4.54
2023-02-02T13:27:30.776Z,4.54
2023-02-02T13:30:18.133Z,4.57
2023-02-02T13:32:46.858Z,4.61
2023-02-02T13:35:22.483Z,4.64
2023-02-02T13:37:56.453Z,4.67
2023-02-02T13:40:39.560Z,4.70
2023-02-02T13:43:33.083Z,4.69
2023-02-02T13:46:01.057Z,4.66
2023-02-02T13:48:47.667Z,4.64
2023-02-02T13:51:37.608Z,4.60
2023-02-02T13:54:27.511Z,4.58
2023-02-02T13:57:10.885Z,4.56
2023-02-02T14:00:18.736Z,4.57
2023-02-02T14:02:58.652Z,4.63
2023-02-02T14:05:38.940Z,4.68
2023-02-02T14:08:16.091Z,4.69
2023-02-02T14:10:53.265Z,4.70
2023-02-02T14:13:45.614Z,4.69
2023-02-02T14:16:41.553Z,4.64
2023-02-02T14:19:16.103Z,4.60
2023-02-02T14:21:44.020Z,4.55
2023-02-02T14:24:27.523Z,4.52
2023-02-02T14:27:00.391Z,4.48
2023-02-02T14:29:31.705Z,4.47
2023-02-02T14:32:07.033Z,4.48
2023-02-02T14:34:45.248Z,4.51
2023-02-02T14:37:20.853Z,4.51
2023-02-02T14:40:01.138Z,4.50
2023-02-02T14:42:53.698Z,4.49
2023-02-02T14:45:31.844Z,4.46
2023-02-02T14:48:11.650Z,4.44
2023-02-02T14:50:49.567Z,4.41
2023-02-02T14:53:20.192Z,4.38
2023-02-02T14:56:12.329Z,4.35
2023-02-02T14:58:44.273Z,4.33
2023-02-02T15:01:18.358Z,4.31
2023-02-02T15:04:21.728Z,4.31
2023-02-02T15:06:52.812Z,4.36
2023-02-02T15:09:21.036Z,4.39
2023-02-02T15:12:09.120Z,4.43
2023-02-02T15:14:43.331Z,4.43
2023-02-02T15:17:39.477Z,4.41
2023-02-02T15:20:33.837Z,4.40
2023-02-02T15:23:16.039Z,4.34
2023-02-02T15:26:09.233Z,4.32
2023-02-02T15:28:48.114Z,4.27
2023-02-02T15:31:23.021Z,4.22
2023-02-02T15:33:52.858Z,4.17
2023-02-02T15:36:25.195Z,4.12
2023-02-02T15:38:55.558Z,4.06
2023-02-02T15:41:26.784Z,4.02
2023-02-02T15:43:55.104Z,3.98
2023-02-02T15:46:29.311Z,3.96
2023-02-02T15:49:33.836Z,3.98
2023-02-02T15:52:19.529Z,4.01
2023-02-02T15:54:53.307Z,4.03
2023-02-02T15:57:42.510Z,4.03
2023-02-02T16:00:39.814Z,4.04
2023-02-02T16:03:14.650Z,4.02
2023-02-02T16:05:56.413Z,3.99
2023-02-02T16:08:28.013Z,3.94
2023-02-02T16:11:25.803Z,3.88
2023-02-02T16:14:10.885Z,3.82
2023-02-02T16:16:40.419Z,3.77
2023-02-02T16:19:08.527Z,3.72
2023-02-02T16:21:41.314Z,3.66
2023-02-02T16:24:19.587Z,3.61
2023-02-02T16:26:48.711Z,3.56
2023-02-02T16:29:18.692Z,3.51
2023-02-02T16:31:47.858Z,3.45
2023-02-02T16:34:17.268Z,3.40
2023-02-02T16:37:04.756Z,3.35
2023-02-02T16:39:32.766Z,3.31
2023-02-02T16:42:12.193Z,3.26
2023-02-02T16:44:43.726Z,3.22
2023-02-02T16:47:33.384Z,3.18
2023-02-02T16:50:10.735Z,3.14
2023-02-02T16:52:50.607Z,3.10
2023-02-02T16:55:20.283Z,3.09
2023-02-02T16:57:50.037Z,3.12
2023-02-02T17:00:24.783Z,3.14
2023-02-02T17:03:03.726Z,3.16
2023-02-02T17:05:59.150Z,3.18
2023-02-02T17:08:33.207Z,3.17
2023-02-02T17:11:13.034Z,3.16
2023-02-02T17:13:41.817Z,3.14
2023-02-02T17:16:16.886Z,3.13
2023-02-02T17:18:45.304Z,3.10
2023-02-02T17:21:21.118Z,3.09
2023-02-02T17:23:51.980Z,3.06
2023-02-02T17:26:20.741Z,3.02
2023-02-02T17:28:49.604Z,2.97
2023-02-02T17:31:17.767Z,2.93
2023-02-02T17:33:46.259Z,2.90
2023-02-02T17:36:14.822Z,2.87
2023-02-02T17:38:43.401Z,2.85
2023-02-02T17:41:14.393Z,2.83
2023-02-02T17:43:43.158Z,2.82
2023-02-02T17:46:13.475Z,2.80
2023-02-02T17:48:41.929Z,2.78
2023-02-02T17:51:15.253Z,2.78
2023-02-02T17:53:44.804Z,2.76
2023-02-02T17:56:13.156Z,2.75
2023-02-02T17:58:41.620Z,2.75
2023-02-02T18:01:11.579Z,2.74
2023-02-02T18:03:41.091Z,2.72
2023-02-02T18:06:10.991Z,2.72
2023-02-02T18:08:39.051Z,2.71
2023-02-02T18:11:07.164Z,2.70
2023-02-02T18:13:35.564Z,2.70
2023-02-02T18:16:07.023Z,2.68
2023-02-02T18:18:35.668Z,2.68
2023-02-02T18:21:08.389Z,2.67
2023-02-02T18:23:37.948Z,2.67
2023-02-02T18:26:12.714Z,2.67
2023-02-02T18:28:41.444Z,2.66
2023-02-02T18:31:12.443Z,2.66
2023-02-02T18:33:41.748Z,2.65
2023-02-02T18:36:15.455Z,2.64
2023-02-02T18:38:47.007Z,2.65
2023-02-02T18:41:16.891Z,2.64
2023-02-02T18:43:48.468Z,2.63
2023-02-02T18:46:17.725Z,2.62
2023-02-02T18:48:46.355Z,2.61
2023-02-02T18:51:16.794Z,2.59
2023-02-02T18:53:46.938Z,2.57
2023-02-02T18:56:15.626Z,2.57
2023-02-02T18:58:43.970Z,2.57
2023-02-02T19:01:17.623Z,2.57
2023-02-02T19:03:51.370Z,2.56
2023-02-02T19:06:39.116Z,2.54
2023-02-02T19:09:14.202Z,2.54
2023-02-02T19:11:45.342Z,2.53
2023-02-02T19:14:25.562Z,2.52
2023-02-02T19:16:57.020Z,2.52
2023-02-02T19:19:34.814Z,2.51
2023-02-02T19:22:23.584Z,2.50
2023-02-02T19:24:51.687Z,2.48
2023-02-02T19:27:22.323Z,2.49
2023-02-02T19:29:56.577Z,2.46
2023-02-02T19:32:27.111Z,2.45
2023-02-02T19:35:02.184Z,2.44
2023-02-02T19:37:32.928Z,2.42
2023-02-02T19:40:07.463Z,2.41
2023-02-02T19:42:36.608Z,2.39
2023-02-02T19:45:22.090Z,2.37
2023-02-02T19:47:52.537Z,2.34
2023-02-02T19:50:22.765Z,2.34
2023-02-02T19:52:51.461Z,2.32
2023-02-02T19:55:25.798Z,2.31
2023-02-02T19:57:58.670Z,2.28
2023-02-02T20:00:29.741Z,2.27
2023-02-02T20:03:02.944Z,2.25
2023-02-02T20:05:47.284Z,2.23
2023-02-02T20:08:42.847Z,2.21
2023-02-02T20:11:38.725Z,2.18
2023-02-02T20:14:30.572Z,2.16
2023-02-02T20:17:29.079Z,2.14
2023-02-02T20:19:57.293Z,2.12
2023-02-02T20:22:32.794Z,2.10
2023-02-02T20:25:08.238Z,2.08
2023-02-02T20:27:38.134Z,2.12
2023-02-02T20:30:39.047Z,2.14
2023-02-02T20:33:20.891Z,2.17
2023-02-02T20:35:49.619Z,2.19
2023-02-02T20:38:29.380Z,2.21
2023-02-02T20:40:58.125Z,2.20
2023-02-02T20:43:26.937Z,2.18
2023-02-02T20:45:58.355Z,2.17
2023-02-02T20:48:27.955Z,2.15
2023-02-02T20:50:56.133Z,2.11
2023-02-02T20:53:24.371Z,2.08
2023-02-02T20:55:57.527Z,2.04
2023-02-02T20:58:25.943Z,2.00
2023-02-02T21:00:55.183Z,1.95
2023-02-02T21:03:23.526Z,1.92
2023-02-02T21:05:51.665Z,1.88
2023-02-02T21:08:19.734Z,1.84
2023-02-02T21:10:47.887Z,1.81
2023-02-02T21:13:15.945Z,1.78
2023-02-02T21:15:44.313Z,1.76
2023-02-02T21:18:12.673Z,1.71
2023-02-02T21:20:40.950Z,1.68
2023-02-02T21:23:10.311Z,1.64
2023-02-02T21:25:38.401Z,1.60
2023-02-02T21:28:06.591Z,1.57
2023-02-02T21:30:35.613Z,1.55
2023-02-02T21:33:05.743Z,1.54
2023-02-02T21:35:34.664Z,1.55
2023-02-02T21:38:11.024Z,1.58
2023-02-02T21:40:40.274Z,1.61
2023-02-02T21:43:15.601Z,1.64
2023-02-02T21:45:45.491Z,1.65
2023-02-02T21:48:19.462Z,1.65
2023-02-02T21:50:48.049Z,1.63
2023-02-02T21:53:24.597Z,1.59
2023-02-02T21:55:58.592Z,1.56
2023-02-02T21:58:33.375Z,1.53
2023-02-02T22:01:16.946Z,1.48
2023-02-02T22:03:47.117Z,1.43
2023-02-02T22:06:21.313Z,1.39
2023-02-02T22:08:50.253Z,1.35
2023-02-02T22:11:18.596Z,1.31
2023-02-02T22:13:46.601Z,1.27
2023-02-02T22:16:18.415Z,1.22
2023-02-02T22:18:47.381Z,1.18
2023-02-02T22:21:19.925Z,1.14
2023-02-02T22:23:48.966Z,1.10
2023-02-02T22:26:29.559Z,1.04
2023-02-02T22:28:57.932Z,1.03
2023-02-02T22:31:25.991Z,1.05
2023-02-02T22:33:54.482Z,1.08
2023-02-02T22:36:23.067Z,1.12
2023-02-02T22:38:51.143Z,1.14
2023-02-02T22:41:19.370Z,1.13
2023-02-02T22:43:47.418Z,1.11
2023-02-02T22:46:15.644Z,1.10
2023-02-02T22:48:43.780Z,1.09
2023-02-02T22:51:11.870Z,1.06
2023-02-02T22:53:40.001Z,1.03
2023-02-02T22:56:07.943Z,1.01
2023-02-02T22:58:36.134Z,0.98
2023-02-02T23:01:05.067Z,0.94
2023-02-02T23:03:33.085Z,0.90
2023-02-02T23:06:01.499Z,0.82
2023-02-02T23:08:29.574Z,0.75
2023-02-02T23:10:57.532Z,0.69
2023-02-02T23:13:25.584Z,0.66
2023-02-02T23:15:53.545Z,0.63
2023-02-02T23:18:22.330Z,0.63
2023-02-02T23:20:50.612Z,0.63
2023-02-02T23:23:18.700Z,0.64
2023-02-02T23:25:46.697Z,0.65
2023-02-02T23:28:14.759Z,0.66
2023-02-02T23:30:42.634Z,0.65
2023-02-02T23:33:10.567Z,0.61
2023-02-02T23:35:38.436Z,0.57
2023-02-02T23:38:06.489Z,0.54
2023-02-02T23:40:34.375Z,0.53
2023-02-02T23:43:02.325Z,0.52
2023-02-02T23:45:30.276Z,0.49
2023-02-02T23:47:58.461Z,0.46
2023-02-02T23:50:27.370Z,0.45
2023-02-02T23:52:55.612Z,0.44
2023-02-02T23:55:23.567Z,0.41
2023-02-02T23:57:51.548Z,0.41
